Time,TemperatureF,DewpointF,PressureIn,WindDirection,WindDirectionDegrees,WindSpeedMPH,WindSpeedGustMPH,Humidity,HourlyPrecipIn,Conditions,Clouds,dailyrainin,SoftwareType,DateUTC
2013-09-12 00:12:00,70.4,69.0,29.93,NW,326,0.0,0.0,94,0.00,,,0.00,weatherlink.com 1.10,2013-09-12 04:12:00,
2013-09-12 00:27:00,70.4,69.0,29.93,NW,326,0.0,2.0,95,0.00,,,0.00,weatherlink.com 1.10,2013-09-12 04:27:00,
2013-09-12 00:42:00,70.7,69.0,29.93,NW,326,0.0,1.0,95,0.00,,,0.00,weatherlink.com 1.10,2013-09-12 04:42:00,
2013-09-12 00:57:00,70.9,70.0,29.92,NW,326,0.0,1.0,96,0.00,,,0.00,weatherlink.com 1.10,2013-09-12 04:57:00,
2013-09-12 01:12:00,70.7,69.0,29.92,NW,326,0.0,0.0,95,0.00,,,0.00,weatherlink.com 1.10,2013-09-12 05:12:00,
2013-09-12 01:27:00,70.7,70.0,29.93,NW,325,0.0,2.0,96,0.00,,,0.00,weatherlink.com 1.10,2013-09-12 05:27:00,
2013-09-12 01:42:00,70.9,70.0,29.93,West,278,6.0,7.0,95,0.00,,,0.00,weatherlink.com 1.10,2013-09-12 05:42:00,
2013-09-12 01:57:00,71.1,69.0,29.92,NW,308,0.0,5.0,93,0.09,,,0.09,weatherlink.com 1.10,2013-09-12 05:57:00,
2013-09-12 02:12:00,70.5,69.0,29.92,NW,308,3.0,7.0,94,0.16,,,0.16,weatherlink.com 1.10,2013-09-12 06:12:00,
2013-09-12 02:27:00,70.1,69.0,29.93,South,178,2.0,10.0,95,0.25,,,0.25,weatherlink.com 1.10,2013-09-12 06:27:00,
2013-09-12 02:42:00,69.8,69.0,29.93,SE,140,7.0,9.0,96,0.33,,,0.33,weatherlink.com 1.10,2013-09-12 06:42:00,
2013-09-12 02:57:00,69.7,69.0,29.92,North,360,3.0,10.0,96,0.31,,,0.40,weatherlink.com 1.10,2013-09-12 06:57:00,
2013-09-12 03:12:00,69.5,68.0,29.91,South,182,3.0,9.0,96,0.30,,,0.46,weatherlink.com 1.10,2013-09-12 07:12:00,
2013-09-12 03:27:00,69.4,68.0,29.91,NW,325,1.0,7.0,96,0.21,,,0.48,weatherlink.com 1.10,2013-09-12 07:27:00,
2013-09-12 03:42:00,69.5,69.0,29.91,NNW,331,1.0,8.0,97,0.14,,,0.48,weatherlink.com 1.10,2013-09-12 07:42:00,
2013-09-12 03:57:00,69.4,69.0,29.91,NW,311,1.0,6.0,97,0.09,,,0.50,weatherlink.com 1.10,2013-09-12 07:57:00,
2013-09-12 04:12:00,69.4,69.0,29.90,West,277,0.0,3.0,97,0.08,,,0.54,weatherlink.com 1.10,2013-09-12 08:12:00,
2013-09-12 04:27:00,69.4,69.0,29.89,West,277,1.0,2.0,97,0.07,,,0.55,weatherlink.com 1.10,2013-09-12 08:27:00,
2013-09-12 04:42:00,69.4,69.0,29.88,West,275,1.0,1.0,98,0.08,,,0.56,weatherlink.com 1.10,2013-09-12 08:42:00,
2013-09-12 04:57:00,69.3,69.0,29.89,West,275,0.0,2.0,98,0.06,,,0.56,weatherlink.com 1.10,2013-09-12 08:57:00,
2013-09-12 05:12:00,69.4,69.0,29.88,West,275,0.0,4.0,98,0.02,,,0.56,weatherlink.com 1.10,2013-09-12 09:12:00,
2013-09-12 05:27:00,69.4,69.0,29.88,West,275,0.0,2.0,98,0.01,,,0.56,weatherlink.com 1.10,2013-09-12 09:27:00,
2013-09-12 05:42:00,69.3,69.0,29.89,West,275,0.0,4.0,98,0.00,,,0.56,weatherlink.com 1.10,2013-09-12 09:42:00,
2013-09-12 05:57:00,69.4,69.0,29.89,WSW,245,0.0,5.0,98,0.00,,,0.56,weatherlink.com 1.10,2013-09-12 09:57:00,
2013-09-12 06:12:00,69.4,69.0,29.89,NW,306,0.0,5.0,98,0.00,,,0.56,weatherlink.com 1.10,2013-09-12 10:12:00,
2013-09-12 06:27:00,69.3,69.0,29.89,WSW,239,2.0,3.0,98,0.00,,,0.56,weatherlink.com 1.10,2013-09-12 10:27:00,
2013-09-12 06:42:00,69.2,69.0,29.89,NW,306,1.0,4.0,98,0.00,,,0.56,weatherlink.com 1.10,2013-09-12 10:42:00,
2013-09-12 06:57:00,69.3,69.0,29.89,NW,304,0.0,5.0,98,0.00,,,0.56,weatherlink.com 1.10,2013-09-12 10:57:00,
2013-09-12 07:12:00,69.3,69.0,29.90,SSW,209,5.0,7.0,98,0.00,,,0.56,weatherlink.com 1.10,2013-09-12 11:12:00,
2013-09-12 07:27:00,69.2,69.0,29.90,NW,308,0.0,2.0,98,0.00,,,0.56,weatherlink.com 1.10,2013-09-12 11:27:00,
2013-09-12 07:42:00,69.2,69.0,29.90,WNW,285,2.0,4.0,98,0.00,,,0.56,weatherlink.com 1.10,2013-09-12 11:42:00,
2013-09-12 07:57:00,69.2,69.0,29.89,WSW,253,0.0,4.0,98,0.00,,,0.56,weatherlink.com 1.10,2013-09-12 11:57:00,
2013-09-12 08:12:00,69.3,69.0,29.90,WNW,298,3.0,5.0,98,0.00,,,0.56,weatherlink.com 1.10,2013-09-12 12:12:00,
2013-09-12 08:27:00,69.3,69.0,29.90,West,277,0.0,6.0,98,0.00,,,0.56,weatherlink.com 1.10,2013-09-12 12:27:00,
2013-09-12 08:42:00,69.4,69.0,29.90,WNW,297,0.0,3.0,99,0.00,,,0.56,weatherlink.com 1.10,2013-09-12 12:42:00,
2013-09-12 08:57:00,69.4,69.0,29.89,WNW,290,0.0,5.0,98,0.00,,,0.56,weatherlink.com 1.10,2013-09-12 12:57:00,
2013-09-12 09:12:00,69.5,69.0,29.89,West,276,2.0,3.0,98,0.00,,,0.56,weatherlink.com 1.10,2013-09-12 13:12:00,
2013-09-12 09:27:00,69.6,69.0,29.90,WNW,298,2.0,6.0,98,0.00,,,0.56,weatherlink.com 1.10,2013-09-12 13:27:00,
2013-09-12 09:42:00,69.6,69.0,29.90,NW,308,4.0,9.0,98,0.00,,,0.56,weatherlink.com 1.10,2013-09-12 13:42:00,
2013-09-12 09:57:00,69.7,69.0,29.91,WNW,291,6.0,10.0,97,0.00,,,0.56,weatherlink.com 1.10,2013-09-12 13:57:00,
2013-09-12 10:12:00,69.6,69.0,29.90,WNW,302,6.0,11.0,96,0.00,,,0.56,weatherlink.com 1.10,2013-09-12 14:12:00,
2013-09-12 10:27:00,69.7,68.0,29.91,WNW,297,4.0,9.0,95,0.00,,,0.56,weatherlink.com 1.10,2013-09-12 14:27:00,
2013-09-12 10:42:00,70.1,69.0,29.90,NW,306,4.0,7.0,95,0.00,,,0.56,weatherlink.com 1.10,2013-09-12 14:42:00,
2013-09-12 10:57:00,70.5,69.0,29.91,WNW,294,6.0,8.0,94,0.00,,,0.56,weatherlink.com 1.10,2013-09-12 14:57:00,
2013-09-12 11:12:00,71.1,68.0,29.91,NW,307,7.0,12.0,89,0.00,,,0.56,weatherlink.com 1.10,2013-09-12 15:12:00,
2013-09-12 11:28:00,71.9,68.0,29.91,NNW,327,6.0,10.0,87,0.00,,,0.56,weatherlink.com 1.10,2013-09-12 15:28:00,
2013-09-12 11:43:00,72.1,67.0,29.92,NW,319,4.0,11.0,83,0.00,,,0.56,weatherlink.com 1.10,2013-09-12 15:43:00,
2013-09-12 11:58:00,72.1,66.0,29.91,NNW,327,5.0,9.0,80,0.00,,,0.56,weatherlink.com 1.10,2013-09-12 15:58:00,
2013-09-12 12:13:00,72.3,66.0,29.92,NW,313,4.0,8.0,80,0.00,,,0.56,weatherlink.com 1.10,2013-09-12 16:13:00,
2013-09-12 12:28:00,72.9,65.0,29.92,NNW,329,7.0,7.0,75,0.00,,,0.56,weatherlink.com 1.10,2013-09-12 16:28:00,
2013-09-12 12:43:00,72.8,64.0,29.91,NW,320,5.0,8.0,73,0.00,,,0.56,weatherlink.com 1.10,2013-09-12 16:43:00,
2013-09-12 12:58:00,74.6,62.0,29.91,NW,311,10.0,10.0,64,0.00,,,0.56,weatherlink.com 1.10,2013-09-12 16:58:00,
2013-09-12 13:13:00,75.4,61.0,29.90,WNW,288,8.0,8.0,62,0.00,,,0.56,weatherlink.com 1.10,2013-09-12 17:13:00,
2013-09-12 13:28:00,76.8,60.0,29.90,WNW,296,0.0,9.0,56,0.00,,,0.56,weatherlink.com 1.10,2013-09-12 17:28:00,
2013-09-12 13:43:00,77.6,60.0,29.89,SSW,211,1.0,7.0,54,0.00,,,0.56,weatherlink.com 1.10,2013-09-12 17:43:00,
2013-09-12 13:58:00,78.4,59.0,29.88,West,266,1.0,6.0,52,0.00,,,0.56,weatherlink.com 1.10,2013-09-12 17:58:00,
2013-09-12 14:13:00,78.9,57.0,29.88,SSW,207,3.0,6.0,48,0.00,,,0.56,weatherlink.com 1.10,2013-09-12 18:13:00,
2013-09-12 14:28:00,79.7,58.0,29.87,South,188,4.0,9.0,48,0.00,,,0.56,weatherlink.com 1.10,2013-09-12 18:28:00,
2013-09-12 14:43:00,80.4,60.0,29.86,SW,217,0.0,7.0,50,0.00,,,0.56,weatherlink.com 1.10,2013-09-12 18:43:00,
2013-09-12 14:58:00,81.0,58.0,29.86,WSW,238,0.0,6.0,45,0.00,,,0.56,weatherlink.com 1.10,2013-09-12 18:58:00,
2013-09-12 15:13:00,81.0,59.0,29.85,West,260,2.0,5.0,47,0.00,,,0.56,weatherlink.com 1.10,2013-09-12 19:13:00,
2013-09-12 15:28:00,80.9,60.0,29.85,SW,215,4.0,9.0,49,0.00,,,0.56,weatherlink.com 1.10,2013-09-12 19:28:00,
2013-09-12 15:43:00,79.8,62.0,29.84,NNW,332,0.0,5.0,54,0.00,,,0.56,weatherlink.com 1.10,2013-09-12 19:43:00,
2013-09-12 15:58:00,80.2,60.0,29.83,WSW,255,4.0,7.0,50,0.00,,,0.56,weatherlink.com 1.10,2013-09-12 19:58:00,
2013-09-12 16:13:00,79.7,61.0,29.83,West,277,2.0,2.0,53,0.00,,,0.56,weatherlink.com 1.10,2013-09-12 20:13:00,
2013-09-12 16:28:00,78.9,60.0,29.82,WNW,295,0.0,1.0,53,0.00,,,0.56,weatherlink.com 1.10,2013-09-12 20:28:00,
2013-09-12 16:43:00,77.9,60.0,29.82,WNW,295,0.0,1.0,55,0.00,,,0.56,weatherlink.com 1.10,2013-09-12 20:43:00,
2013-09-12 16:58:00,76.7,61.0,29.80,WNW,296,0.0,0.0,59,0.00,,,0.56,weatherlink.com 1.10,2013-09-12 20:58:00,
2013-09-12 17:13:00,74.3,65.0,29.83,WNW,296,0.0,1.0,72,0.04,,,0.60,weatherlink.com 1.10,2013-09-12 21:13:00,
2013-09-12 17:28:00,68.7,63.0,29.84,West,267,1.0,3.0,83,0.09,,,0.65,weatherlink.com 1.10,2013-09-12 21:28:00,
2013-09-12 17:43:00,66.5,63.0,29.83,NW,305,6.0,6.0,88,0.16,,,0.72,weatherlink.com 1.10,2013-09-12 21:43:00,
2013-09-12 17:59:00,65.5,63.0,29.83,WNW,302,0.0,3.0,91,0.17,,,0.73,weatherlink.com 1.10,2013-09-12 21:59:00,
2013-09-12 18:14:00,65.4,63.0,29.82,WNW,302,0.0,2.0,93,0.13,,,0.73,weatherlink.com 1.10,2013-09-12 22:14:00,
2013-09-12 18:29:00,67.0,65.0,29.82,WNW,302,0.0,3.0,93,0.09,,,0.74,weatherlink.com 1.10,2013-09-12 22:29:00,
2013-09-12 18:44:00,68.2,65.0,29.83,WNW,302,1.0,5.0,90,0.02,,,0.74,weatherlink.com 1.10,2013-09-12 22:44:00,
2013-09-12 18:59:00,67.7,65.0,29.84,WNW,302,0.0,3.0,92,0.01,,,0.74,weatherlink.com 1.10,2013-09-12 22:59:00,
2013-09-12 19:14:00,67.2,65.0,29.84,WNW,302,0.0,3.0,92,0.01,,,0.74,weatherlink.com 1.10,2013-09-12 23:14:00,
2013-09-12 19:29:00,67.6,63.0,29.85,WNW,298,5.0,7.0,84,0.00,,,0.74,weatherlink.com 1.10,2013-09-12 23:29:00,
2013-09-12 19:44:00,68.0,60.0,29.86,NW,318,7.0,9.0,76,0.00,,,0.74,weatherlink.com 1.10,2013-09-12 23:44:00,
2013-09-12 19:59:00,67.7,60.0,29.86,WNW,301,7.0,11.0,75,0.00,,,0.74,weatherlink.com 1.10,2013-09-12 23:59:00,
2013-09-12 20:14:00,67.5,59.0,29.87,WNW,298,6.0,19.0,73,0.00,,,0.74,weatherlink.com 1.10,2013-09-13 00:14:00,
2013-09-12 20:29:00,67.1,58.0,29.88,NW,304,4.0,16.0,73,0.00,,,0.74,weatherlink.com 1.10,2013-09-13 00:29:00,
2013-09-12 20:44:00,66.6,58.0,29.90,WNW,301,7.0,11.0,73,0.00,,,0.74,weatherlink.com 1.10,2013-09-13 00:44:00,
2013-09-12 20:59:00,66.2,57.0,29.90,NW,313,9.0,14.0,73,0.00,,,0.74,weatherlink.com 1.10,2013-09-13 00:59:00,
2013-09-12 21:14:00,65.5,57.0,29.91,NW,314,3.0,13.0,74,0.00,,,0.74,weatherlink.com 1.10,2013-09-13 01:14:00,
2013-09-12 21:29:00,64.5,57.0,29.92,NW,317,5.0,9.0,77,0.00,,,0.74,weatherlink.com 1.10,2013-09-13 01:29:00,
2013-09-12 21:44:00,64.0,57.0,29.93,NW,311,3.0,9.0,78,0.00,,,0.74,weatherlink.com 1.10,2013-09-13 01:44:00,
2013-09-12 21:59:00,63.2,57.0,29.93,NNW,327,3.0,9.0,80,0.00,,,0.74,weatherlink.com 1.10,2013-09-13 01:59:00,
2013-09-12 22:14:00,62.5,56.0,29.93,WNW,301,6.0,7.0,79,0.00,,,0.74,weatherlink.com 1.10,2013-09-13 02:14:00,
2013-09-12 22:29:00,62.1,55.0,29.93,NW,309,5.0,11.0,77,0.00,,,0.74,weatherlink.com 1.10,2013-09-13 02:29:00,
2013-09-12 22:44:00,61.6,54.0,29.94,NW,309,5.0,10.0,77,0.00,,,0.74,weatherlink.com 1.10,2013-09-13 02:44:00,
2013-09-12 22:59:00,61.1,54.0,29.94,NW,315,8.0,10.0,77,0.00,,,0.74,weatherlink.com 1.10,2013-09-13 02:59:00,
2013-09-12 23:14:00,60.6,53.0,29.94,NW,325,3.0,10.0,77,0.00,,,0.74,weatherlink.com 1.10,2013-09-13 03:14:00,
2013-09-12 23:29:00,59.8,53.0,29.95,NW,310,4.0,7.0,79,0.00,,,0.74,weatherlink.com 1.10,2013-09-13 03:29:00,
2013-09-12 23:44:00,59.2,53.0,29.95,WNW,299,3.0,6.0,81,0.00,,,0.74,weatherlink.com 1.10,2013-09-13 03:44:00,
2013-09-12 23:59:00,58.2,53.0,29.96,NW,311,2.0,5.0,83,0.00,,,0.00,weatherlink.com 1.10,2013-09-13 03:59:00,